EW8958 Weather Reports


Display with metric or nautical units.
time (UTC)temp
F
wind
direction
speed
MPH
gust
MPH
rain 1hr
in
rain 24hr
in
rain mn
in
humidity
%
barometer
mb
20210921043531 51 0.0 0.0 0.00 0.00 0.00 89 1029.7
20210921042521 51 0.0 0.0 0.00 0.00 0.00 89 1029.5
20210921041529 51 0.0 0.0 0.00 0.00 0.00 89 1029.5
20210921040532 51 0.0 0.0 0.00 0.00 0.00 88 1029.4
20210921035516 51 0.0 0.0 0.00 0.00 0.00 90 1029.4
20210921034525 51 0.0 0.0 0.00 0.00 0.00 89 1029.4
20210921033523 52 0.0 0.0 0.00 0.00 0.00 90 1029.6
20210921032524 52 0.0 0.0 0.00 0.00 0.00 90 1029.4
20210921031518 52 0.0 0.0 0.00 0.00 0.00 88 1029.4
20210921030527 52 0.0 0.0 0.00 0.00 0.00 89 1029.4
20210921025516 52 0.0 0.0 0.00 0.00 0.00 87 1029.3
20210921024524 53 0.0 0.0 0.00 0.00 0.00 89 1029.2
20210921023533 53 0.0 0.0 0.00 0.00 0.00 87 1029.0
20210921022521 53 0.0 0.0 0.00 0.00 0.00 88 1029.1
20210921021529 53 0.0 0.0 0.00 0.00 0.00 87 1029.2
20210921020517 54 0.0 0.0 0.00 0.00 0.00 87 1029.2
20210921015520 54 0.0 0.0 0.00 0.00 0.00 87 1029.0
20210921014533 55 0.0 0.0 0.00 0.00 0.00 84 1029.1
20210921013528 55 0.0 0.0 0.00 0.00 0.00 82 1029.0
20210921012519 55 0.0 0.0 0.00 0.00 0.00 82 1029.0
20210921011527 55 0.0 0.0 0.00 0.00 0.00 82 1029.0
20210921010518 56 0.0 0.0 0.00 0.00 0.00 81 1029.0
20210921005519 56 0.0 0.0 0.00 0.00 0.00 81 1029.0
20210921004527 56 0.0 0.0 0.00 0.00 0.00 79 1028.7
20210921003518 57 0.0 0.0 0.00 0.00 0.00 80 1028.8
20210921002521 58 0.0 0.0 0.00 0.00 0.00 80 1028.8
20210921001516 58 0.0 0.0 0.00 0.00 0.00 79 1028.7
20210921000524 58 0.0 0.0 0.00 0.00 0.00 77 1028.7
20210920235533 58 0.0 0.0 0.00 0.00 0.00 77 1028.7
20210920234523 59 0.0 0.0 0.00 0.00 0.00 75 1028.6
20210920233531 59 0.0 0.0 0.00 0.00 0.00 74 1028.5
20210920232520 60 180 0.0 2.0 0.00 0.00 0.00 73 1028.4
20210920231528 60 0.0 0.0 0.00 0.00 0.00 72 1028.2
20210920230518 61 0.0 0.0 0.00 0.00 0.00 71 1028.1
20210920225519 62 0.0 0.0 0.00 0.00 0.00 69 1028.3
20210920224527 63 0.0 0.0 0.00 0.00 0.00 68 1028.3
20210920223518 64 180 1.0 3.0 0.00 0.00 0.00 65 1028.2
20210920222520 65 218 1.0 3.0 0.00 0.00 0.00 63 1028.0
20210920221516 66 189 2.0 3.0 0.00 0.00 0.00 61 1027.9
20210920220523 66 201 3.0 4.0 0.00 0.00 0.00 60 1027.9
20210920215524 67 138 3.0 5.0 0.00 0.00 0.00 59 1027.7
20210920214530 68 205 2.0 5.0 0.00 0.00 0.00 59 1027.6
20210920213520 69 159 3.0 6.0 0.00 0.00 0.00 58 1027.6
20210920212521 71 54 2.0 5.0 0.00 0.00 0.00 57 1027.6
20210920211517 71 178 3.0 4.0 0.00 0.00 0.00 58 1027.5
20210920210528 71 190 3.0 5.0 0.00 0.00 0.00 58 1027.5
20210920205516 72 183 3.0 5.0 0.00 0.00 0.00 56 1027.4
20210920204526 73 179 3.0 6.0 0.00 0.00 0.00 54 1027.3
20210920203520 74 29 3.0 4.0 0.00 0.00 0.00 52 1027.2
20210920202521 74 212 2.0 4.0 0.00 0.00 0.00 53 1027.2
20210920201517 74 168 2.0 4.0 0.00 0.00 0.00 54 1027.3
20210920200525 75 204 2.0 4.0 0.00 0.00 0.00 53 1027.3
20210920195533 75 206 2.0 3.0 0.00 0.00 0.00 54 1027.4
20210920194527 75 195 2.0 3.0 0.00 0.00 0.00 54 1027.4
20210920193517 75 240 2.0 3.0 0.00 0.00 0.00 55 1027.4
20210920192519 74 182 2.0 4.0 0.00 0.00 0.00 53 1027.4
20210920191516 74 215 2.0 4.0 0.00 0.00 0.00 55 1027.4
20210920190524 76 51 2.0 4.0 0.00 0.00 0.00 51 1027.4
20210920185534 76 172 3.0 6.0 0.00 0.00 0.00 52 1027.6
20210920184525 76 44 3.0 5.0 0.00 0.00 0.00 50 1027.5
20210920183519 75 119 2.0 4.0 0.00 0.00 0.00 53 1027.7
20210920182521 73 217 1.0 3.0 0.00 0.00 0.00 55 1027.7
20210920181518 73 203 2.0 3.0 0.00 0.00 0.00 53 1027.7
20210920180525 75 149 3.0 4.0 0.00 0.00 0.00 52 1027.7
20210920175532 74 160 2.0 4.0 0.00 0.00 0.00 52 1027.6
20210920174522 75 232 3.0 5.0 0.00 0.00 0.00 51 1027.8
20210920173532 75 181 3.0 5.0 0.00 0.00 0.00 54 1027.8
20210920172521 75 275 1.0 3.0 0.00 0.00 0.00 52 1027.9
20210920171530 75 210 2.0 4.0 0.00 0.00 0.00 53 1028.0
20210920170533 74 133 2.0 5.0 0.00 0.00 0.00 52 1028.0
20210920165518 74 163 3.0 5.0 0.00 0.00 0.00 51 1028.0
20210920164525 74 112 3.0 4.0 0.00 0.00 0.00 51 1028.2
20210920163531 74 220 2.0 4.0 0.00 0.00 0.00 52 1028.2
20210920162524 73 202 3.0 5.0 0.00 0.00 0.00 52 1028.3
20210920161530 73 176 2.0 3.0 0.00 0.00 0.00 54 1028.4
20210920160533 73 146 3.0 4.0 0.00 0.00 0.00 52 1028.4
20210920155518 73 198 3.0 4.0 0.00 0.00 0.00 53 1028.2
20210920154526 72 234 2.0 3.0 0.00 0.00 0.00 53 1028.3
20210920153521 73 237 3.0 4.0 0.00 0.00 0.00 53 1028.4
20210920152523 72 161 2.0 3.0 0.00 0.00 0.00 55 1028.5
20210920151518 71 139 2.0 4.0 0.00 0.00 0.00 55 1028.6
20210920150525 71 140 2.0 3.0 0.00 0.00 0.00 55 1028.5
20210920145516 70 204 2.0 3.0 0.00 0.00 0.00 55 1028.6
20210920144525 71 348 2.0 4.0 0.00 0.00 0.00 56 1028.6
20210920143517 70 181 3.0 5.0 0.00 0.01 0.00 58 1028.5
20210920142528 70 160 2.0 5.0 0.00 0.01 0.00 59 1028.5
20210920141531 69 33 2.0 4.0 0.00 0.01 0.00 60 1028.4
20210920140520 69 358 1.0 3.0 0.00 0.01 0.00 61 1028.4
20210920135523 69 0.0 0.0 0.00 0.01 0.00 62 1028.4
20210920134518 67 0.0 0.0 0.00 0.01 0.00 68 1028.2
20210920133531 66 0.0 0.0 0.00 0.01 0.00 69 1028.2
20210920132521 65 0.0 0.0 0.00 0.01 0.00 73 1028.0
20210920131529 64 0.0 0.0 0.00 0.01 0.00 75 1028.0
20210920130518 62 0.0 0.0 0.00 0.01 0.00 79 1028.1
20210920125523 61 0.0 0.0 0.00 0.01 0.00 82 1028.0
20210920124530 59 0.0 0.0 0.00 0.01 0.00 86 1027.8
20210920123520 58 0.0 0.0 0.00 0.01 0.00 87 1027.7
20210920122523 58 158 0.0 2.0 0.00 0.01 0.00 86 1027.6
20210920121518 57 0.0 0.0 0.00 0.01 0.00 87 1027.5
20210920120527 55 0.0 0.0 0.00 0.01 0.00 91 1027.5
20210920115517 56 0.0 0.0 0.00 0.01 0.00 94 1027.4
20210920114525 54 0.0 0.0 0.00 0.01 0.00 96 1027.3
20210920113533 52 0.0 0.0 0.00 0.01 0.00 95 1026.9
20210920112523 52 0.0 0.0 0.00 0.01 0.00 95 1026.7
20210920111531 51 0.0 0.0 0.00 0.01 0.00 95 1026.7
20210920110521 50 0.0 0.0 0.00 0.01 0.00 94 1026.6
20210920105524 49 0.0 0.0 0.00 0.01 0.00 93 1026.3
20210920104533 48 0.0 0.0 0.00 0.01 0.00 93 1026.3
20210920103523 48 0.0 0.0 0.00 0.01 0.00 93 1026.0
20210920102525 48 0.0 0.0 0.00 0.01 0.00 92 1025.9
20210920101516 48 0.0 0.0 0.00 0.01 0.00 92 1025.9
20210920100531 49 0.0 0.0 0.00 0.01 0.00 93 1025.9
20210920095533 49 0.0 0.0 0.00 0.01 0.00 93 1025.7
20210920094523 49 0.0 0.0 0.00 0.01 0.00 93 1025.6
20210920093526 49 0.0 0.0 0.00 0.01 0.00 92 1025.4
20210920092521 49 0.0 0.0 0.00 0.01 0.00 92 1025.5
20210920091518 48 0.0 0.0 0.00 0.01 0.00 92 1025.5
20210920090532 49 0.0 0.0 0.00 0.01 0.00 93 1025.4
20210920085521 49 0.0 0.0 0.00 0.01 0.00 93 1025.4
20210920084550 49 0.0 0.0 0.00 0.01 0.00 92 1025.3
20210920083520 49 0.0 0.0 0.00 0.01 0.00 92 1025.2
20210920082531 49 0.0 0.0 0.00 0.01 0.00 93 1025.0
20210920081523 49 0.0 0.0 0.00 0.01 0.00 93 1024.8
20210920080527 50 0.0 0.0 0.00 0.01 0.00 93 1024.7
20210920075529 50 0.0 0.0 0.00 0.01 0.00 93 1024.7
20210920074525 50 0.0 0.0 0.00 0.01 0.00 93 1024.8
20210920073521 50 0.0 0.0 0.00 0.01 0.00 93 1024.7
20210920072529 50 0.0 0.0 0.00 0.01 0.00 93 1024.6
20210920071520 50 0.0 0.0 0.00 0.01 0.00 92 1024.6
20210920070523 50 0.0 0.0 0.00 0.01 0.00 92 1024.7
20210920065526 50 0.0 0.0 0.00 0.01 0.00 92 1024.4
20210920064533 50 0.0 0.0 0.00 0.01 0.00 92 1024.6
20210920063524 51 0.0 0.0 0.00 0.01 0.00 93 1024.5
20210920062518 50 0.0 0.0 0.00 0.01 0.00 92 1024.4
20210920061520 51 0.0 0.0 0.00 0.01 0.00 92 1024.4
20210920060516 51 0.0 0.0 0.00 0.01 0.00 92 1024.3
20210920055523 51 0.0 0.0 0.00 0.01 0.00 93 1024.4
20210920054532 51 0.0 0.0 0.00 0.01 0.00 92 1024.4
20210920053526 51 0.0 0.0 0.00 0.01 0.00 92 1024.3
20210920052517 51 0.0 0.0 0.00 0.01 0.00 93 1024.2
20210920051519 51 0.0 0.0 0.00 0.01 0.00 92 1024.1
20210920050535 51 0.0 0.0 0.00 0.03 0.00 93 1024.1
20210920045523 51 0.0 0.0 0.00 0.03 0.00 92 1024.0
20210920044531 52 0.0 0.0 0.00 0.03 0.00 92 1024.1